createdAt,value
2023-05-06T10:36:36.341Z,78.32
2023-05-06T10:41:40.836Z,77.86
2023-05-06T10:47:03.010Z,78.24
2023-05-06T10:52:18.284Z,78.99
2023-05-06T10:57:27.178Z,79.64
2023-05-06T11:02:36.960Z,80.06
2023-05-06T11:07:39.714Z,80.50
2023-05-06T11:12:53.860Z,80.85
2023-05-06T11:17:59.429Z,80.37
2023-05-06T11:23:02.425Z,81.13
2023-05-06T11:28:12.926Z,81.20
2023-05-06T11:33:19.774Z,82.66
2023-05-06T11:38:22.534Z,82.05
2023-05-06T11:43:25.189Z,83.53
2023-05-06T11:48:28.241Z,84.49
2023-05-06T11:53:30.414Z,82.81
2023-05-06T11:58:33.605Z,84.58
2023-05-06T12:03:44.825Z,83.35
2023-05-06T12:08:48.387Z,84.90
2023-05-06T12:13:50.683Z,83.73
2023-05-06T12:18:54.833Z,83.58
2023-05-06T12:24:01.861Z,85.67
2023-05-06T12:29:10.858Z,84.41
2023-05-06T12:34:18.416Z,84.12
2023-05-06T12:39:20.756Z,84.42
2023-05-06T12:44:34.646Z,84.44
2023-05-06T12:49:58.000Z,85.01
2023-05-06T12:55:07.791Z,84.79
2023-05-06T13:00:15.204Z,84.80
2023-05-06T13:05:20.777Z,84.96
2023-05-06T13:10:23.152Z,85.91
2023-05-06T13:15:25.460Z,85.45
2023-05-06T13:20:30.428Z,85.87
2023-05-06T13:25:32.771Z,85.40
2023-05-06T13:30:35.416Z,86.24
2023-05-06T13:35:37.481Z,85.48
2023-05-06T13:40:39.716Z,85.76
2023-05-06T13:45:43.473Z,86.12
2023-05-06T13:50:47.313Z,86.42
2023-05-06T13:55:49.209Z,85.73
2023-05-06T14:00:51.535Z,85.82
2023-05-06T14:05:53.776Z,85.38
2023-05-06T14:10:59.675Z,85.30
2023-05-06T14:16:02.079Z,84.88
2023-05-06T14:21:04.612Z,84.61
2023-05-06T14:26:06.632Z,83.03
2023-05-06T14:31:10.327Z,84.03
2023-05-06T14:36:18.653Z,84.70
2023-05-06T14:41:21.427Z,84.39
2023-05-06T14:46:23.652Z,84.04
2023-05-06T14:51:26.130Z,84.25
2023-05-06T14:56:28.593Z,82.54
2023-05-06T15:01:32.400Z,83.25
2023-05-06T15:06:34.483Z,82.87
2023-05-06T15:11:36.544Z,81.65
2023-05-06T15:16:39.173Z,81.14
2023-05-06T15:21:41.532Z,83.00
2023-05-06T15:26:44.359Z,84.00
2023-05-06T15:31:47.081Z,83.97
2023-05-06T15:36:53.627Z,84.82
2023-05-06T15:41:59.243Z,85.02
2023-05-06T15:47:02.099Z,84.69
2023-05-06T15:52:04.518Z,82.41
2023-05-06T15:57:07.588Z,81.65
2023-05-06T16:07:15.770Z,82.99
2023-05-06T16:12:18.718Z,83.45
2023-05-06T16:17:20.919Z,83.77
2023-05-06T16:22:22.937Z,85.67
2023-05-06T16:27:27.527Z,85.53
2023-05-06T16:32:31.760Z,85.82
2023-05-06T16:37:33.789Z,83.98
2023-05-06T16:42:36.414Z,83.42
2023-05-06T16:47:38.878Z,83.75
2023-05-06T16:52:41.566Z,84.36
2023-05-06T16:57:43.601Z,85.12
2023-05-06T17:02:46.249Z,84.86
2023-05-06T17:07:49.706Z,84.51
2023-05-06T17:12:52.750Z,82.52
2023-05-06T17:17:55.147Z,83.08
2023-05-06T17:22:58.226Z,82.95
2023-05-06T17:28:00.206Z,82.74
2023-05-06T17:33:03.764Z,84.07
2023-05-06T17:38:06.112Z,85.13
2023-05-06T17:43:11.703Z,84.80
2023-05-06T17:48:15.256Z,85.00
2023-05-06T17:53:20.428Z,85.22
2023-05-06T17:58:22.528Z,85.38
2023-05-06T18:03:25.389Z,85.44
2023-05-06T18:08:35.898Z,85.32
2023-05-06T18:13:39.634Z,85.37
2023-05-06T18:18:42.851Z,85.16
2023-05-06T18:23:45.773Z,85.60
2023-05-06T18:28:54.711Z,86.13
2023-05-06T18:34:05.051Z,86.88
2023-05-06T18:39:08.098Z,86.84
2023-05-06T18:44:14.738Z,87.22
2023-05-06T18:49:17.410Z,87.94
2023-05-06T18:54:20.446Z,87.56
2023-05-06T18:59:22.552Z,88.14
2023-05-06T19:04:25.358Z,88.52
2023-05-06T19:09:27.659Z,88.61
2023-05-06T19:14:30.660Z,88.97
2023-05-06T19:19:33.071Z,88.79
2023-05-06T19:24:35.764Z,89.03
2023-05-06T19:29:40.756Z,89.11
2023-05-06T19:34:43.178Z,89.16
2023-05-06T19:39:46.469Z,88.49
2023-05-06T19:44:49.964Z,88.37
2023-05-06T19:49:53.618Z,88.06
2023-05-06T19:54:56.650Z,88.17
2023-05-06T20:00:00.077Z,88.06
2023-05-06T20:05:06.701Z,88.07
2023-05-06T20:10:10.269Z,87.63
2023-05-06T20:15:13.289Z,87.66
2023-05-06T20:20:15.750Z,88.21
2023-05-06T20:25:18.856Z,88.72
2023-05-06T20:30:21.193Z,88.25
2023-05-06T20:35:24.331Z,87.75
2023-05-06T20:40:27.069Z,88.63
2023-05-06T20:45:32.641Z,88.57
2023-05-06T20:50:38.623Z,88.75
2023-05-06T20:55:44.409Z,88.65
2023-05-06T21:00:50.603Z,89.03
2023-05-06T21:05:53.243Z,88.87
2023-05-06T21:10:58.998Z,89.15
2023-05-06T21:16:05.730Z,89.41
2023-05-06T21:21:08.123Z,88.84
2023-05-06T21:26:13.010Z,87.38
2023-05-06T21:31:19.255Z,87.13
2023-05-06T21:36:22.115Z,87.87
2023-05-06T21:41:26.136Z,87.63
2023-05-06T21:46:32.516Z,86.23
2023-05-06T21:51:37.456Z,84.73
2023-05-06T21:56:39.709Z,84.43
2023-05-06T22:01:41.818Z,84.94
2023-05-06T22:06:44.934Z,87.00
2023-05-06T22:11:47.183Z,87.22
2023-05-06T22:16:50.439Z,87.47
2023-05-06T22:21:56.207Z,87.84
2023-05-06T22:26:58.656Z,88.59
2023-05-06T22:32:01.655Z,88.91
2023-05-06T22:37:09.644Z,88.28
2023-05-06T22:42:11.862Z,88.46
2023-05-06T22:47:14.757Z,88.86
2023-05-06T22:52:20.629Z,88.75
2023-05-06T22:57:32.836Z,88.62
2023-05-06T23:02:35.312Z,88.00
2023-05-06T23:07:39.616Z,87.83
2023-05-06T23:12:43.266Z,88.02
2023-05-06T23:17:45.828Z,87.77
2023-05-06T23:22:50.496Z,88.13
2023-05-06T23:27:56.329Z,88.38
2023-05-06T23:33:04.595Z,87.99
2023-05-06T23:38:13.262Z,87.34
2023-05-06T23:43:19.110Z,87.18
2023-05-06T23:48:22.519Z,87.20
2023-05-06T23:53:25.790Z,87.69
2023-05-06T23:58:35.687Z,87.74
